sensor_id;sensor_type;location;lat;lon;timestamp;P1;durP1;ratioP1;P2;durP2;ratioP2
72156;SDS011;60035;52.122;5.406;2023-04-03T00:00:37;5.03;;;1.42;;
72156;SDS011;60035;52.122;5.406;2023-04-03T00:03:04;4.55;;;1.50;;
72156;SDS011;60035;52.122;5.406;2023-04-03T00:05:30;4.40;;;1.45;;
72156;SDS011;60035;52.122;5.406;2023-04-03T00:07:57;3.83;;;1.10;;
72156;SDS011;60035;52.122;5.406;2023-04-03T00:10:23;5.63;;;1.52;;
72156;SDS011;60035;52.122;5.406;2023-04-03T00:12:50;3.92;;;1.20;;
72156;SDS011;60035;52.122;5.406;2023-04-03T00:15:17;3.40;;;1.20;;
72156;SDS011;60035;52.122;5.406;2023-04-03T00:17:43;3.00;;;1.20;;
72156;SDS011;60035;52.122;5.406;2023-04-03T00:20:10;2.90;;;1.50;;
72156;SDS011;60035;52.122;5.406;2023-04-03T00:22:36;2.78;;;1.13;;
72156;SDS011;60035;52.122;5.406;2023-04-03T00:25:03;4.95;;;1.77;;
72156;SDS011;60035;52.122;5.406;2023-04-03T00:27:30;2.75;;;1.17;;
72156;SDS011;60035;52.122;5.406;2023-04-03T00:29:56;4.05;;;1.40;;
72156;SDS011;60035;52.122;5.406;2023-04-03T00:32:23;4.03;;;1.60;;
72156;SDS011;60035;52.122;5.406;2023-04-03T00:34:50;6.40;;;1.48;;
72156;SDS011;60035;52.122;5.406;2023-04-03T00:37:16;4.97;;;1.42;;
72156;SDS011;60035;52.122;5.406;2023-04-03T00:39:42;4.22;;;1.58;;
72156;SDS011;60035;52.122;5.406;2023-04-03T00:42:09;2.80;;;1.20;;
72156;SDS011;60035;52.122;5.406;2023-04-03T00:47:02;2.80;;;1.20;;
72156;SDS011;60035;52.122;5.406;2023-04-03T00:49:31;3.80;;;1.33;;
72156;SDS011;60035;52.122;5.406;2023-04-03T00:51:58;3.67;;;1.27;;
72156;SDS011;60035;52.122;5.406;2023-04-03T00:54:25;3.83;;;1.25;;
72156;SDS011;60035;52.122;5.406;2023-04-03T00:56:53;3.00;;;1.20;;
72156;SDS011;60035;52.122;5.406;2023-04-03T00:59:23;5.30;;;1.48;;
72156;SDS011;60035;52.122;5.406;2023-04-03T01:01:53;4.10;;;1.50;;
72156;SDS011;60035;52.122;5.406;2023-04-03T01:04:34;5.53;;;1.50;;
72156;SDS011;60035;52.122;5.406;2023-04-03T01:07:15;5.18;;;1.10;;
72156;SDS011;60035;52.122;5.406;2023-04-03T01:09:44;4.72;;;1.38;;
72156;SDS011;60035;52.122;5.406;2023-04-03T01:12:20;6.45;;;1.27;;
72156;SDS011;60035;52.122;5.406;2023-04-03T01:14:59;4.72;;;1.55;;
72156;SDS011;60035;52.122;5.406;2023-04-03T01:17:39;3.63;;;1.50;;
72156;SDS011;60035;52.122;5.406;2023-04-03T01:20:20;5.60;;;1.20;;
72156;SDS011;60035;52.122;5.406;2023-04-03T01:25:38;3.55;;;1.42;;
72156;SDS011;60035;52.122;5.406;2023-04-03T01:28:07;4.50;;;1.60;;
72156;SDS011;60035;52.122;5.406;2023-04-03T01:30:37;2.97;;;1.35;;
72156;SDS011;60035;52.122;5.406;2023-04-03T01:33:09;3.05;;;1.30;;
72156;SDS011;60035;52.122;5.406;2023-04-03T01:35:35;4.28;;;1.05;;
72156;SDS011;60035;52.122;5.406;2023-04-03T01:38:02;4.80;;;1.50;;
72156;SDS011;60035;52.122;5.406;2023-04-03T01:40:28;3.80;;;1.73;;
72156;SDS011;60035;52.122;5.406;2023-04-03T01:42:54;5.10;;;1.50;;
72156;SDS011;60035;52.122;5.406;2023-04-03T01:45:21;5.15;;;1.45;;
72156;SDS011;60035;52.122;5.406;2023-04-03T01:47:48;4.10;;;1.65;;
72156;SDS011;60035;52.122;5.406;2023-04-03T01:50:14;2.80;;;1.48;;
72156;SDS011;60035;52.122;5.406;2023-04-03T01:52:41;5.60;;;2.13;;
72156;SDS011;60035;52.122;5.406;2023-04-03T01:55:08;4.75;;;1.65;;
72156;SDS011;60035;52.122;5.406;2023-04-03T01:57:35;5.03;;;2.00;;
72156;SDS011;60035;52.122;5.406;2023-04-03T02:00:01;4.45;;;1.60;;
72156;SDS011;60035;52.122;5.406;2023-04-03T02:02:28;3.45;;;1.40;;
72156;SDS011;60035;52.122;5.406;2023-04-03T02:04:55;5.63;;;1.27;;
72156;SDS011;60035;52.122;5.406;2023-04-03T02:07:22;4.85;;;1.67;;
72156;SDS011;60035;52.122;5.406;2023-04-03T02:09:48;5.05;;;1.73;;
72156;SDS011;60035;52.122;5.406;2023-04-03T02:12:15;4.68;;;1.67;;
72156;SDS011;60035;52.122;5.406;2023-04-03T02:14:42;7.32;;;2.03;;
72156;SDS011;60035;52.122;5.406;2023-04-03T02:17:08;6.72;;;1.45;;
72156;SDS011;60035;52.122;5.406;2023-04-03T02:19:35;6.47;;;1.83;;
72156;SDS011;60035;52.122;5.406;2023-04-03T02:22:02;4.80;;;2.08;;
72156;SDS011;60035;52.122;5.406;2023-04-03T02:24:29;4.20;;;1.48;;
72156;SDS011;60035;52.122;5.406;2023-04-03T02:26:56;4.28;;;1.83;;
72156;SDS011;60035;52.122;5.406;2023-04-03T02:29:23;4.30;;;1.40;;
72156;SDS011;60035;52.122;5.406;2023-04-03T02:31:49;4.15;;;1.55;;
72156;SDS011;60035;52.122;5.406;2023-04-03T02:34:16;6.55;;;1.33;;
72156;SDS011;60035;52.122;5.406;2023-04-03T02:36:43;4.45;;;1.60;;
72156;SDS011;60035;52.122;5.406;2023-04-03T02:39:10;3.30;;;1.35;;
72156;SDS011;60035;52.122;5.406;2023-04-03T02:41:37;4.90;;;1.50;;
72156;SDS011;60035;52.122;5.406;2023-04-03T02:44:04;5.10;;;1.58;;
72156;SDS011;60035;52.122;5.406;2023-04-03T02:46:32;4.05;;;1.55;;
72156;SDS011;60035;52.122;5.406;2023-04-03T02:48:59;4.43;;;1.48;;
72156;SDS011;60035;52.122;5.406;2023-04-03T02:51:25;5.72;;;1.88;;
72156;SDS011;60035;52.122;5.406;2023-04-03T02:53:52;5.55;;;1.52;;
72156;SDS011;60035;52.122;5.406;2023-04-03T02:56:18;5.60;;;1.30;;
72156;SDS011;60035;52.122;5.406;2023-04-03T02:58:46;5.07;;;1.70;;
72156;SDS011;60035;52.122;5.406;2023-04-03T03:01:13;4.78;;;1.52;;
72156;SDS011;60035;52.122;5.406;2023-04-03T03:03:39;4.65;;;1.85;;
72156;SDS011;60035;52.122;5.406;2023-04-03T03:06:10;6.85;;;1.80;;
72156;SDS011;60035;52.122;5.406;2023-04-03T03:08:38;3.90;;;1.35;;
72156;SDS011;60035;52.122;5.406;2023-04-03T03:11:04;4.40;;;1.52;;
72156;SDS011;60035;52.122;5.406;2023-04-03T03:13:31;4.05;;;1.70;;
72156;SDS011;60035;52.122;5.406;2023-04-03T03:15:59;4.47;;;2.47;;
72156;SDS011;60035;52.122;5.406;2023-04-03T03:18:26;6.13;;;1.70;;
72156;SDS011;60035;52.122;5.406;2023-04-03T03:20:54;4.22;;;1.35;;
72156;SDS011;60035;52.122;5.406;2023-04-03T03:23:23;5.45;;;1.33;;
72156;SDS011;60035;52.122;5.406;2023-04-03T03:25:55;5.30;;;1.90;;
72156;SDS011;60035;52.122;5.406;2023-04-03T03:28:23;5.07;;;1.42;;
72156;SDS011;60035;52.122;5.406;2023-04-03T03:30:49;5.22;;;1.58;;
72156;SDS011;60035;52.122;5.406;2023-04-03T03:33:17;5.57;;;1.63;;
72156;SDS011;60035;52.122;5.406;2023-04-03T03:35:44;4.43;;;1.40;;
72156;SDS011;60035;52.122;5.406;2023-04-03T03:38:10;3.85;;;1.67;;
72156;SDS011;60035;52.122;5.406;2023-04-03T03:40:37;6.78;;;1.58;;
72156;SDS011;60035;52.122;5.406;2023-04-03T03:43:03;3.40;;;1.52;;
72156;SDS011;60035;52.122;5.406;2023-04-03T03:45:30;6.15;;;1.55;;
72156;SDS011;60035;52.122;5.406;2023-04-03T03:47:57;5.40;;;2.28;;
72156;SDS011;60035;52.122;5.406;2023-04-03T03:50:23;4.47;;;1.55;;
72156;SDS011;60035;52.122;5.406;2023-04-03T03:52:50;7.15;;;2.08;;
72156;SDS011;60035;52.122;5.406;2023-04-03T03:55:17;3.83;;;1.67;;
72156;SDS011;60035;52.122;5.406;2023-04-03T03:57:43;3.58;;;1.55;;
72156;SDS011;60035;52.122;5.406;2023-04-03T04:00:10;5.32;;;1.70;;
72156;SDS011;60035;52.122;5.406;2023-04-03T04:02:37;5.05;;;1.50;;
72156;SDS011;60035;52.122;5.406;2023-04-03T04:05:04;4.97;;;1.67;;
72156;SDS011;60035;52.122;5.406;2023-04-03T04:07:30;3.42;;;1.70;;
72156;SDS011;60035;52.122;5.406;2023-04-03T04:09:57;5.70;;;2.10;;
72156;SDS011;60035;52.122;5.406;2023-04-03T04:12:23;5.18;;;1.67;;
72156;SDS011;60035;52.122;5.406;2023-04-03T04:14:50;6.88;;;1.92;;
72156;SDS011;60035;52.122;5.406;2023-04-03T04:17:17;5.47;;;1.70;;
72156;SDS011;60035;52.122;5.406;2023-04-03T04:19:44;4.07;;;1.75;;
72156;SDS011;60035;52.122;5.406;2023-04-03T04:22:10;6.22;;;2.05;;
72156;SDS011;60035;52.122;5.406;2023-04-03T04:24:37;4.18;;;1.83;;
72156;SDS011;60035;52.122;5.406;2023-04-03T04:27:05;6.07;;;2.13;;
72156;SDS011;60035;52.122;5.406;2023-04-03T04:29:31;3.63;;;1.42;;
72156;SDS011;60035;52.122;5.406;2023-04-03T04:32:02;4.80;;;1.80;;
72156;SDS011;60035;52.122;5.406;2023-04-03T04:34:29;4.90;;;1.98;;
72156;SDS011;60035;52.122;5.406;2023-04-03T04:36:56;6.63;;;1.80;;
72156;SDS011;60035;52.122;5.406;2023-04-03T04:39:23;6.15;;;2.15;;
72156;SDS011;60035;52.122;5.406;2023-04-03T04:41:49;8.63;;;2.03;;
72156;SDS011;60035;52.122;5.406;2023-04-03T04:44:16;5.97;;;1.88;;
72156;SDS011;60035;52.122;5.406;2023-04-03T04:46:42;7.65;;;2.13;;
72156;SDS011;60035;52.122;5.406;2023-04-03T04:49:09;6.50;;;1.85;;
72156;SDS011;60035;52.122;5.406;2023-04-03T04:51:35;5.47;;;1.92;;
72156;SDS011;60035;52.122;5.406;2023-04-03T04:54:16;8.60;;;2.22;;
72156;SDS011;60035;52.122;5.406;2023-04-03T04:56:43;6.05;;;1.85;;
72156;SDS011;60035;52.122;5.406;2023-04-03T04:59:09;5.03;;;2.00;;
72156;SDS011;60035;52.122;5.406;2023-04-03T05:01:36;7.13;;;2.03;;
72156;SDS011;60035;52.122;5.406;2023-04-03T05:04:02;8.07;;;1.73;;
72156;SDS011;60035;52.122;5.406;2023-04-03T05:06:29;6.57;;;1.70;;
72156;SDS011;60035;52.122;5.406;2023-04-03T05:08:57;6.28;;;2.22;;
72156;SDS011;60035;52.122;5.406;2023-04-03T05:11:24;4.78;;;1.70;;
72156;SDS011;60035;52.122;5.406;2023-04-03T05:13:51;5.82;;;1.52;;
72156;SDS011;60035;52.122;5.406;2023-04-03T05:16:18;7.38;;;2.88;;
72156;SDS011;60035;52.122;5.406;2023-04-03T05:18:44;6.43;;;2.10;;
72156;SDS011;60035;52.122;5.406;2023-04-03T05:21:11;7.28;;;2.13;;
72156;SDS011;60035;52.122;5.406;2023-04-03T05:23:38;7.18;;;2.35;;
72156;SDS011;60035;52.122;5.406;2023-04-03T05:26:04;6.38;;;2.13;;
72156;SDS011;60035;52.122;5.406;2023-04-03T05:28:31;7.72;;;2.38;;
72156;SDS011;60035;52.122;5.406;2023-04-03T05:30:59;4.97;;;2.15;;
72156;SDS011;60035;52.122;5.406;2023-04-03T05:33:25;6.07;;;1.92;;
72156;SDS011;60035;52.122;5.406;2023-04-03T05:35:53;9.77;;;2.13;;
72156;SDS011;60035;52.122;5.406;2023-04-03T05:38:20;5.55;;;1.75;;
72156;SDS011;60035;52.122;5.406;2023-04-03T05:40:47;4.93;;;2.10;;
72156;SDS011;60035;52.122;5.406;2023-04-03T05:43:13;7.15;;;1.90;;
72156;SDS011;60035;52.122;5.406;2023-04-03T05:45:42;6.38;;;2.00;;
72156;SDS011;60035;52.122;5.406;2023-04-03T05:48:12;5.63;;;1.67;;
72156;SDS011;60035;52.122;5.406;2023-04-03T05:50:39;5.57;;;1.92;;
72156;SDS011;60035;52.122;5.406;2023-04-03T05:53:09;7.03;;;2.78;;
72156;SDS011;60035;52.122;5.406;2023-04-03T05:55:44;7.13;;;2.28;;
72156;SDS011;60035;52.122;5.406;2023-04-03T05:58:11;4.50;;;2.00;;
72156;SDS011;60035;52.122;5.406;2023-04-03T06:00:37;7.70;;;2.20;;
72156;SDS011;60035;52.122;5.406;2023-04-03T06:03:04;7.22;;;2.13;;
72156;SDS011;60035;52.122;5.406;2023-04-03T06:05:31;5.47;;;1.45;;
72156;SDS011;60035;52.122;5.406;2023-04-03T06:07:58;5.45;;;2.00;;
72156;SDS011;60035;52.122;5.406;2023-04-03T06:10:24;7.22;;;1.70;;
72156;SDS011;60035;52.122;5.406;2023-04-03T06:12:51;6.57;;;2.30;;
72156;SDS011;60035;52.122;5.406;2023-04-03T06:15:18;7.38;;;1.80;;
72156;SDS011;60035;52.122;5.406;2023-04-03T06:17:44;4.30;;;1.70;;
72156;SDS011;60035;52.122;5.406;2023-04-03T06:20:11;6.05;;;1.95;;
72156;SDS011;60035;52.122;5.406;2023-04-03T06:22:38;7.90;;;2.10;;
72156;SDS011;60035;52.122;5.406;2023-04-03T06:25:05;5.30;;;1.65;;
72156;SDS011;60035;52.122;5.406;2023-04-03T06:27:32;7.35;;;1.98;;
72156;SDS011;60035;52.122;5.406;2023-04-03T06:29:58;5.90;;;1.83;;
72156;SDS011;60035;52.122;5.406;2023-04-03T06:32:25;5.18;;;2.03;;
72156;SDS011;60035;52.122;5.406;2023-04-03T06:34:52;4.22;;;1.65;;
72156;SDS011;60035;52.122;5.406;2023-04-03T06:37:20;6.70;;;2.05;;
72156;SDS011;60035;52.122;5.406;2023-04-03T06:40:01;5.97;;;1.63;;
72156;SDS011;60035;52.122;5.406;2023-04-03T06:42:29;6.57;;;1.65;;
72156;SDS011;60035;52.122;5.406;2023-04-03T06:45:04;4.13;;;1.60;;
72156;SDS011;60035;52.122;5.406;2023-04-03T06:47:31;6.10;;;1.67;;
72156;SDS011;60035;52.122;5.406;2023-04-03T06:49:57;5.13;;;1.35;;
72156;SDS011;60035;52.122;5.406;2023-04-03T06:52:24;6.57;;;1.90;;
72156;SDS011;60035;52.122;5.406;2023-04-03T06:55:03;8.40;;;1.70;;
72156;SDS011;60035;52.122;5.406;2023-04-03T06:57:30;8.30;;;1.48;;
72156;SDS011;60035;52.122;5.406;2023-04-03T06:59:56;7.53;;;1.80;;
72156;SDS011;60035;52.122;5.406;2023-04-03T07:02:30;7.25;;;1.90;;
72156;SDS011;60035;52.122;5.406;2023-04-03T07:04:57;9.40;;;2.13;;
72156;SDS011;60035;52.122;5.406;2023-04-03T07:07:26;9.60;;;2.08;;
72156;SDS011;60035;52.122;5.406;2023-04-03T07:09:53;4.80;;;1.63;;
72156;SDS011;60035;52.122;5.406;2023-04-03T07:12:19;4.82;;;1.70;;
72156;SDS011;60035;52.122;5.406;2023-04-03T07:14:46;8.85;;;2.22;;
72156;SDS011;60035;52.122;5.406;2023-04-03T07:17:15;5.80;;;1.80;;
72156;SDS011;60035;52.122;5.406;2023-04-03T07:19:42;5.80;;;2.03;;
72156;SDS011;60035;52.122;5.406;2023-04-03T07:22:08;5.97;;;1.83;;
72156;SDS011;60035;52.122;5.406;2023-04-03T07:24:35;6.13;;;1.98;;
72156;SDS011;60035;52.122;5.406;2023-04-03T07:27:02;6.70;;;2.00;;
72156;SDS011;60035;52.122;5.406;2023-04-03T07:29:29;6.18;;;1.77;;
72156;SDS011;60035;52.122;5.406;2023-04-03T07:31:56;7.88;;;1.90;;
72156;SDS011;60035;52.122;5.406;2023-04-03T07:34:23;4.95;;;1.60;;
72156;SDS011;60035;52.122;5.406;2023-04-03T07:36:49;4.97;;;1.70;;
72156;SDS011;60035;52.122;5.406;2023-04-03T07:39:16;7.15;;;1.52;;
72156;SDS011;60035;52.122;5.406;2023-04-03T07:41:42;5.15;;;2.03;;
72156;SDS011;60035;52.122;5.406;2023-04-03T07:44:09;6.68;;;1.90;;
72156;SDS011;60035;52.122;5.406;2023-04-03T07:46:38;8.90;;;1.70;;
72156;SDS011;60035;52.122;5.406;2023-04-03T07:49:05;5.70;;;1.60;;
72156;SDS011;60035;52.122;5.406;2023-04-03T07:51:31;5.78;;;2.08;;
72156;SDS011;60035;52.122;5.406;2023-04-03T07:53:58;7.30;;;1.80;;
72156;SDS011;60035;52.122;5.406;2023-04-03T07:56:24;3.90;;;1.40;;
72156;SDS011;60035;52.122;5.406;2023-04-03T07:58:51;7.55;;;1.85;;
72156;SDS011;60035;52.122;5.406;2023-04-03T08:01:18;3.78;;;1.42;;
72156;SDS011;60035;52.122;5.406;2023-04-03T08:03:44;4.25;;;1.60;;
72156;SDS011;60035;52.122;5.406;2023-04-03T08:06:11;5.43;;;1.40;;
72156;SDS011;60035;52.122;5.406;2023-04-03T08:08:42;5.03;;;1.67;;
72156;SDS011;60035;52.122;5.406;2023-04-03T08:11:09;6.35;;;1.70;;
72156;SDS011;60035;52.122;5.406;2023-04-03T08:13:36;3.83;;;1.10;;
72156;SDS011;60035;52.122;5.406;2023-04-03T08:16:07;4.53;;;1.30;;
72156;SDS011;60035;52.122;5.406;2023-04-03T08:18:38;6.80;;;1.63;;
72156;SDS011;60035;52.122;5.406;2023-04-03T08:21:05;5.40;;;1.30;;
72156;SDS011;60035;52.122;5.406;2023-04-03T08:23:33;6.50;;;1.13;;
72156;SDS011;60035;52.122;5.406;2023-04-03T08:26:05;3.63;;;1.27;;
72156;SDS011;60035;52.122;5.406;2023-04-03T08:28:33;6.95;;;1.55;;
72156;SDS011;60035;52.122;5.406;2023-04-03T08:31:04;6.05;;;1.33;;
72156;SDS011;60035;52.122;5.406;2023-04-03T08:33:32;5.47;;;1.30;;
72156;SDS011;60035;52.122;5.406;2023-04-03T08:36:03;5.57;;;1.50;;
72156;SDS011;60035;52.122;5.406;2023-04-03T08:38:30;4.38;;;1.40;;
72156;SDS011;60035;52.122;5.406;2023-04-03T08:41:17;2.28;;;1.05;;
72156;SDS011;60035;52.122;5.406;2023-04-03T08:47:19;5.53;;;1.00;;
72156;SDS011;60035;52.122;5.406;2023-04-03T08:49:59;3.47;;;1.00;;
72156;SDS011;60035;52.122;5.406;2023-04-03T08:57:51;2.88;;;0.75;;
72156;SDS011;60035;52.122;5.406;2023-04-03T09:00:25;3.25;;;0.80;;
72156;SDS011;60035;52.122;5.406;2023-04-03T09:02:55;3.83;;;0.77;;
72156;SDS011;60035;52.122;5.406;2023-04-03T09:05:32;4.15;;;0.85;;
72156;SDS011;60035;52.122;5.406;2023-04-03T09:08:04;2.35;;;0.70;;
72156;SDS011;60035;52.122;5.406;2023-04-03T09:15:45;3.30;;;0.90;;
72156;SDS011;60035;52.122;5.406;2023-04-03T09:18:16;2.53;;;0.80;;
72156;SDS011;60035;52.122;5.406;2023-04-03T09:23:38;3.22;;;0.98;;
72156;SDS011;60035;52.122;5.406;2023-04-03T09:26:47;2.72;;;0.65;;
72156;SDS011;60035;52.122;5.406;2023-04-03T09:29:13;2.97;;;0.80;;
72156;SDS011;60035;52.122;5.406;2023-04-03T09:31:44;2.38;;;0.70;;
72156;SDS011;60035;52.122;5.406;2023-04-03T09:36:48;2.50;;;0.70;;
72156;SDS011;60035;52.122;5.406;2023-04-03T09:39:17;2.53;;;0.70;;
72156;SDS011;60035;52.122;5.406;2023-04-03T09:41:55;1.42;;;0.55;;
72156;SDS011;60035;52.122;5.406;2023-04-03T09:44:23;2.05;;;0.80;;
72156;SDS011;60035;52.122;5.406;2023-04-03T09:46:51;1.83;;;0.80;;
72156;SDS011;60035;52.122;5.406;2023-04-03T09:49:18;1.48;;;0.77;;
72156;SDS011;60035;52.122;5.406;2023-04-03T09:51:45;3.25;;;0.82;;
72156;SDS011;60035;52.122;5.406;2023-04-03T09:57:02;0.70;;;0.30;;
72156;SDS011;60035;52.122;5.406;2023-04-03T09:59:33;1.58;;;0.70;;
72156;SDS011;60035;52.122;5.406;2023-04-03T10:02:02;1.23;;;0.70;;
72156;SDS011;60035;52.122;5.406;2023-04-03T10:04:37;1.48;;;0.55;;
72156;SDS011;60035;52.122;5.406;2023-04-03T10:07:25;2.65;;;0.50;;
72156;SDS011;60035;52.122;5.406;2023-04-03T10:12:40;2.00;;;0.50;;
72156;SDS011;60035;52.122;5.406;2023-04-03T10:15:10;1.30;;;0.50;;
72156;SDS011;60035;52.122;5.406;2023-04-03T10:17:57;1.98;;;0.68;;
72156;SDS011;60035;52.122;5.406;2023-04-03T10:20:42;0.98;;;0.60;;
72156;SDS011;60035;52.122;5.406;2023-04-03T10:25:53;0.95;;;0.55;;
72156;SDS011;60035;52.122;5.406;2023-04-03T10:28:34;2.28;;;0.57;;
72156;SDS011;60035;52.122;5.406;2023-04-03T10:31:11;2.35;;;0.60;;
72156;SDS011;60035;52.122;5.406;2023-04-03T10:37:05;1.30;;;0.45;;
72156;SDS011;60035;52.122;5.406;2023-04-03T10:39:56;1.73;;;0.60;;
72156;SDS011;60035;52.122;5.406;2023-04-03T10:42:43;1.63;;;0.60;;
72156;SDS011;60035;52.122;5.406;2023-04-03T10:45:43;1.88;;;0.55;;
72156;SDS011;60035;52.122;5.406;2023-04-03T10:48:24;3.40;;;1.13;;
72156;SDS011;60035;52.122;5.406;2023-04-03T10:56:53;0.85;;;0.40;;
72156;SDS011;60035;52.122;5.406;2023-04-03T11:04:59;1.77;;;0.70;;
72156;SDS011;60035;52.122;5.406;2023-04-03T11:07:32;3.22;;;0.60;;
72156;SDS011;60035;52.122;5.406;2023-04-03T11:10:10;1.52;;;0.73;;
72156;SDS011;60035;52.122;5.406;2023-04-03T11:12:46;2.30;;;0.60;;
72156;SDS011;60035;52.122;5.406;2023-04-03T11:15:16;2.72;;;0.85;;
72156;SDS011;60035;52.122;5.406;2023-04-03T11:20:35;2.28;;;0.95;;
72156;SDS011;60035;52.122;5.406;2023-04-03T11:23:21;1.92;;;0.70;;
72156;SDS011;60035;52.122;5.406;2023-04-03T11:25:57;2.15;;;0.63;;
72156;SDS011;60035;52.122;5.406;2023-04-03T11:28:33;2.38;;;0.60;;
72156;SDS011;60035;52.122;5.406;2023-04-03T11:37:05;2.05;;;0.60;;
72156;SDS011;60035;52.122;5.406;2023-04-03T11:39:46;2.17;;;0.70;;
72156;SDS011;60035;52.122;5.406;2023-04-03T11:44:45;1.65;;;0.70;;
72156;SDS011;60035;52.122;5.406;2023-04-03T11:47:12;4.32;;;0.70;;
72156;SDS011;60035;52.122;5.406;2023-04-03T12:16:22;3.10;;;0.82;;
72156;SDS011;60035;52.122;5.406;2023-04-03T12:18:55;2.58;;;0.80;;
72156;SDS011;60035;52.122;5.406;2023-04-03T12:26:25;2.60;;;0.60;;
72156;SDS011;60035;52.122;5.406;2023-04-03T12:29:14;4.55;;;0.82;;
72156;SDS011;60035;52.122;5.406;2023-04-03T12:31:56;2.35;;;0.77;;
72156;SDS011;60035;52.122;5.406;2023-04-03T12:37:20;1.77;;;0.90;;
72156;SDS011;60035;52.122;5.406;2023-04-03T12:45:24;1.23;;;0.60;;
72156;SDS011;60035;52.122;5.406;2023-04-03T12:47:55;3.15;;;1.00;;
72156;SDS011;60035;52.122;5.406;2023-04-03T12:50:23;3.72;;;0.77;;
72156;SDS011;60035;52.122;5.406;2023-04-03T12:52:57;2.30;;;1.05;;
72156;SDS011;60035;52.122;5.406;2023-04-03T12:55:30;3.63;;;0.90;;
72156;SDS011;60035;52.122;5.406;2023-04-03T12:57:57;2.38;;;0.70;;
72156;SDS011;60035;52.122;5.406;2023-04-03T13:00:39;3.78;;;1.00;;
72156;SDS011;60035;52.122;5.406;2023-04-03T13:03:06;3.08;;;1.13;;
72156;SDS011;60035;52.122;5.406;2023-04-03T13:05:49;4.22;;;0.95;;
72156;SDS011;60035;52.122;5.406;2023-04-03T13:08:16;2.70;;;0.90;;
72156;SDS011;60035;52.122;5.406;2023-04-03T13:10:53;3.17;;;1.02;;
72156;SDS011;60035;52.122;5.406;2023-04-03T13:13:25;3.35;;;0.90;;
72156;SDS011;60035;52.122;5.406;2023-04-03T13:15:52;2.55;;;1.15;;
72156;SDS011;60035;52.122;5.406;2023-04-03T13:18:31;3.42;;;0.95;;
72156;SDS011;60035;52.122;5.406;2023-04-03T13:21:15;2.55;;;0.73;;
72156;SDS011;60035;52.122;5.406;2023-04-03T13:23:52;2.70;;;0.77;;
72156;SDS011;60035;52.122;5.406;2023-04-03T13:26:39;2.30;;;1.00;;
72156;SDS011;60035;52.122;5.406;2023-04-03T13:29:07;3.65;;;0.90;;
72156;SDS011;60035;52.122;5.406;2023-04-03T13:31:55;4.47;;;1.00;;
72156;SDS011;60035;52.122;5.406;2023-04-03T13:34:23;3.67;;;0.85;;
72156;SDS011;60035;52.122;5.406;2023-04-03T13:36:59;3.22;;;1.00;;
72156;SDS011;60035;52.122;5.406;2023-04-03T13:39:31;3.17;;;0.65;;
72156;SDS011;60035;52.122;5.406;2023-04-03T13:42:00;3.28;;;1.20;;
72156;SDS011;60035;52.122;5.406;2023-04-03T13:44:40;1.70;;;0.65;;
72156;SDS011;60035;52.122;5.406;2023-04-03T13:49:37;2.85;;;0.88;;
72156;SDS011;60035;52.122;5.406;2023-04-03T13:52:52;4.32;;;0.98;;
72156;SDS011;60035;52.122;5.406;2023-04-03T13:55:17;1.77;;;0.60;;
72156;SDS011;60035;52.122;5.406;2023-04-03T13:58:02;3.65;;;1.00;;
72156;SDS011;60035;52.122;5.406;2023-04-03T14:06:22;2.95;;;0.75;;
72156;SDS011;60035;52.122;5.406;2023-04-03T14:08:50;3.28;;;1.05;;
72156;SDS011;60035;52.122;5.406;2023-04-03T14:11:20;2.38;;;0.73;;
72156;SDS011;60035;52.122;5.406;2023-04-03T14:13:50;2.80;;;1.30;;
72156;SDS011;60035;52.122;5.406;2023-04-03T14:16:18;2.28;;;0.98;;
72156;SDS011;60035;52.122;5.406;2023-04-03T14:18:47;3.78;;;1.23;;
72156;SDS011;60035;52.122;5.406;2023-04-03T14:21:16;2.67;;;0.90;;
72156;SDS011;60035;52.122;5.406;2023-04-03T14:23:44;2.88;;;1.15;;
72156;SDS011;60035;52.122;5.406;2023-04-03T14:26:13;2.08;;;0.93;;
72156;SDS011;60035;52.122;5.406;2023-04-03T14:28:42;2.88;;;0.90;;
72156;SDS011;60035;52.122;5.406;2023-04-03T14:31:12;2.42;;;0.88;;
72156;SDS011;60035;52.122;5.406;2023-04-03T14:33:39;3.88;;;1.20;;
72156;SDS011;60035;52.122;5.406;2023-04-03T14:36:13;3.20;;;1.00;;
72156;SDS011;60035;52.122;5.406;2023-04-03T14:38:42;3.45;;;1.20;;
72156;SDS011;60035;52.122;5.406;2023-04-03T14:41:13;3.65;;;1.13;;
72156;SDS011;60035;52.122;5.406;2023-04-03T14:43:42;4.25;;;1.10;;
72156;SDS011;60035;52.122;5.406;2023-04-03T14:46:14;4.43;;;1.20;;
72156;SDS011;60035;52.122;5.406;2023-04-03T14:48:43;2.88;;;1.05;;
72156;SDS011;60035;52.122;5.406;2023-04-03T14:51:11;3.55;;;1.05;;
72156;SDS011;60035;52.122;5.406;2023-04-03T14:53:38;4.78;;;1.20;;
72156;SDS011;60035;52.122;5.406;2023-04-03T14:56:40;3.92;;;1.27;;
72156;SDS011;60035;52.122;5.406;2023-04-03T14:59:00;3.50;;;1.15;;
72156;SDS011;60035;52.122;5.406;2023-04-03T15:01:29;3.80;;;1.40;;
72156;SDS011;60035;52.122;5.406;2023-04-03T15:03:56;4.30;;;1.45;;
72156;SDS011;60035;52.122;5.406;2023-04-03T15:06:23;4.28;;;1.20;;
72156;SDS011;60035;52.122;5.406;2023-04-03T15:08:51;4.43;;;1.40;;
72156;SDS011;60035;52.122;5.406;2023-04-03T15:11:17;3.80;;;1.40;;
72156;SDS011;60035;52.122;5.406;2023-04-03T15:13:44;4.60;;;1.30;;
72156;SDS011;60035;52.122;5.406;2023-04-03T15:16:14;3.72;;;1.30;;
72156;SDS011;60035;52.122;5.406;2023-04-03T15:18:43;4.22;;;1.13;;
72156;SDS011;60035;52.122;5.406;2023-04-03T15:21:10;3.42;;;1.00;;
72156;SDS011;60035;52.122;5.406;2023-04-03T15:23:37;3.60;;;1.27;;
72156;SDS011;60035;52.122;5.406;2023-04-03T15:26:03;3.10;;;1.20;;
72156;SDS011;60035;52.122;5.406;2023-04-03T15:28:35;2.85;;;1.08;;
72156;SDS011;60035;52.122;5.406;2023-04-03T15:31:03;5.65;;;1.35;;
72156;SDS011;60035;52.122;5.406;2023-04-03T15:33:31;4.78;;;1.08;;
72156;SDS011;60035;52.122;5.406;2023-04-03T15:35:58;5.43;;;1.42;;
72156;SDS011;60035;52.122;5.406;2023-04-03T15:38:37;3.95;;;1.48;;
72156;SDS011;60035;52.122;5.406;2023-04-03T15:41:04;6.63;;;1.98;;
72156;SDS011;60035;52.122;5.406;2023-04-03T15:43:31;3.50;;;1.13;;
72156;SDS011;60035;52.122;5.406;2023-04-03T15:45:59;4.15;;;1.50;;
72156;SDS011;60035;52.122;5.406;2023-04-03T15:48:27;6.57;;;1.40;;
72156;SDS011;60035;52.122;5.406;2023-04-03T15:50:54;2.88;;;1.35;;
72156;SDS011;60035;52.122;5.406;2023-04-03T15:53:24;5.43;;;1.33;;
72156;SDS011;60035;52.122;5.406;2023-04-03T15:55:50;4.03;;;1.65;;
72156;SDS011;60035;52.122;5.406;2023-04-03T15:58:17;5.28;;;1.35;;
72156;SDS011;60035;52.122;5.406;2023-04-03T16:00:43;2.75;;;1.15;;
72156;SDS011;60035;52.122;5.406;2023-04-03T16:03:17;3.35;;;1.25;;
72156;SDS011;60035;52.122;5.406;2023-04-03T16:05:46;3.38;;;1.17;;
72156;SDS011;60035;52.122;5.406;2023-04-03T16:08:13;4.45;;;1.13;;
72156;SDS011;60035;52.122;5.406;2023-04-03T16:10:40;4.38;;;1.38;;
72156;SDS011;60035;52.122;5.406;2023-04-03T16:13:07;3.30;;;1.10;;
72156;SDS011;60035;52.122;5.406;2023-04-03T16:15:34;7.50;;;1.67;;
72156;SDS011;60035;52.122;5.406;2023-04-03T16:18:01;4.60;;;1.38;;
72156;SDS011;60035;52.122;5.406;2023-04-03T16:20:29;6.88;;;1.42;;
72156;SDS011;60035;52.122;5.406;2023-04-03T16:22:56;3.28;;;1.10;;
72156;SDS011;60035;52.122;5.406;2023-04-03T16:25:25;4.22;;;1.33;;
72156;SDS011;60035;52.122;5.406;2023-04-03T16:27:52;4.38;;;1.52;;
72156;SDS011;60035;52.122;5.406;2023-04-03T16:30:19;4.07;;;1.38;;
72156;SDS011;60035;52.122;5.406;2023-04-03T16:32:45;3.60;;;1.30;;
72156;SDS011;60035;52.122;5.406;2023-04-03T16:35:13;4.32;;;1.52;;
72156;SDS011;60035;52.122;5.406;2023-04-03T16:37:39;2.75;;;1.15;;
72156;SDS011;60035;52.122;5.406;2023-04-03T16:40:06;3.85;;;1.33;;
72156;SDS011;60035;52.122;5.406;2023-04-03T16:42:33;5.00;;;1.60;;
72156;SDS011;60035;52.122;5.406;2023-04-03T16:45:03;3.58;;;1.30;;
72156;SDS011;60035;52.122;5.406;2023-04-03T16:47:32;5.00;;;1.50;;
72156;SDS011;60035;52.122;5.406;2023-04-03T16:49:58;4.72;;;1.23;;